createdAt,value
2022-12-29T00:01:11.594Z,83.08
2022-12-29T00:03:39.977Z,83.52
2022-12-29T00:06:08.124Z,83.21
2022-12-29T00:08:42.161Z,83.36
2022-12-29T00:11:14.430Z,83.02
2022-12-29T00:13:59.826Z,83.03
2022-12-29T00:16:29.250Z,82.07
2022-12-29T00:18:57.292Z,82.64
2022-12-29T00:21:44.700Z,82.16
2022-12-29T00:24:34.742Z,82.20
2022-12-29T00:27:32.186Z,81.35
2022-12-29T00:30:18.787Z,82.27
2022-12-29T00:33:04.097Z,82.75
2022-12-29T00:35:40.339Z,82.02
2022-12-29T00:38:29.287Z,82.48
2022-12-29T00:41:14.653Z,82.73
2022-12-29T00:44:01.227Z,82.22
2022-12-29T00:46:29.646Z,82.62
2022-12-29T00:49:16.853Z,83.90
2022-12-29T00:51:46.387Z,82.76
2022-12-29T00:54:15.477Z,83.29
2022-12-29T00:56:43.572Z,83.28
2022-12-29T00:59:13.444Z,84.03
2022-12-29T01:01:42.366Z,84.67
2022-12-29T01:04:11.818Z,83.30
2022-12-29T01:06:42.452Z,83.78
2022-12-29T01:09:29.486Z,82.44
2022-12-29T01:11:57.935Z,82.65
2022-12-29T01:14:28.430Z,82.95
2022-12-29T01:16:58.171Z,81.61
2022-12-29T01:19:26.713Z,82.31
2022-12-29T01:21:55.071Z,82.18
2022-12-29T01:24:23.552Z,81.99
2022-12-29T01:26:51.754Z,81.42
2022-12-29T01:29:20.104Z,81.94
2022-12-29T01:31:50.640Z,82.38
2022-12-29T01:34:19.944Z,82.38
2022-12-29T01:36:47.948Z,82.09
2022-12-29T01:39:16.073Z,81.96
2022-12-29T01:41:44.316Z,82.27
2022-12-29T01:44:53.881Z,82.86
2022-12-29T01:47:38.092Z,82.56
2022-12-29T01:50:12.597Z,83.50
2022-12-29T01:52:49.650Z,83.69
2022-12-29T01:55:18.358Z,84.37
2022-12-29T01:57:54.568Z,84.16
2022-12-29T02:00:22.819Z,84.58
2022-12-29T02:02:55.303Z,84.61
2022-12-29T02:05:32.921Z,84.90
2022-12-29T02:08:03.201Z,85.25
2022-12-29T02:10:36.751Z,84.95
2022-12-29T02:13:05.216Z,84.95
2022-12-29T02:15:51.347Z,84.50
2022-12-29T02:18:42.169Z,84.50
2022-12-29T02:21:56.370Z,83.96
2022-12-29T02:25:12.104Z,83.63
2022-12-29T02:27:57.940Z,83.33
2022-12-29T02:30:50.672Z,83.28
2022-12-29T02:33:36.238Z,83.17
2022-12-29T02:36:20.632Z,82.09
2022-12-29T02:39:01.333Z,82.64
2022-12-29T02:41:34.964Z,81.52
2022-12-29T02:44:14.510Z,80.96
2022-12-29T02:46:55.513Z,80.34
2022-12-29T02:49:35.560Z,79.71
2022-12-29T02:52:08.972Z,79.56
2022-12-29T02:54:43.546Z,80.18
2022-12-29T02:57:16.519Z,79.21
2022-12-29T02:59:50.120Z,78.00
2022-12-29T03:02:55.031Z,77.21
2022-12-29T03:05:52.460Z,77.21
2022-12-29T03:08:30.607Z,77.22
2022-12-29T03:11:04.975Z,77.79
2022-12-29T03:14:03.688Z,76.75
2022-12-29T03:16:45.811Z,76.24
2022-12-29T03:19:21.797Z,76.02
2022-12-29T03:22:15.871Z,75.06
2022-12-29T03:24:50.652Z,75.12
2022-12-29T03:27:26.246Z,75.12
2022-12-29T03:30:01.520Z,75.29
2022-12-29T03:32:38.007Z,74.92
2022-12-29T03:35:11.902Z,75.36
2022-12-29T03:37:44.984Z,74.45
2022-12-29T03:40:13.808Z,74.50
2022-12-29T03:42:43.533Z,74.46
2022-12-29T03:45:13.210Z,74.33
2022-12-29T03:47:40.981Z,74.06
2022-12-29T03:50:13.754Z,74.41
2022-12-29T03:52:42.378Z,74.21
2022-12-29T03:55:11.271Z,73.55
2022-12-29T03:57:39.333Z,74.17
2022-12-29T04:00:10.108Z,73.44
2022-12-29T04:02:38.189Z,74.57
2022-12-29T04:05:08.088Z,73.40
2022-12-29T04:07:37.234Z,74.29
2022-12-29T04:10:06.148Z,73.51
2022-12-29T04:12:34.211Z,73.72
2022-12-29T04:15:02.369Z,73.42
2022-12-29T04:17:30.452Z,73.44
2022-12-29T04:20:18.590Z,73.66
2022-12-29T04:22:47.928Z,73.66
2022-12-29T04:25:16.161Z,73.59
2022-12-29T04:27:44.210Z,73.78
2022-12-29T04:30:13.666Z,73.29
2022-12-29T04:32:42.081Z,73.62
2022-12-29T04:35:10.634Z,73.06
2022-12-29T04:37:38.663Z,74.01
2022-12-29T04:40:10.708Z,73.17
2022-12-29T04:42:38.710Z,72.56
2022-12-29T04:45:08.423Z,73.68
2022-12-29T04:48:17.578Z,74.01
2022-12-29T04:50:36.252Z,74.23
2022-12-29T04:53:07.228Z,73.33
2022-12-29T04:55:39.255Z,73.15
2022-12-29T04:58:07.246Z,73.18
2022-12-29T05:00:35.853Z,72.97
2022-12-29T05:03:03.998Z,73.02
2022-12-29T05:05:32.287Z,73.60
2022-12-29T05:08:00.337Z,73.21
2022-12-29T05:10:28.558Z,73.00
2022-12-29T05:12:57.987Z,73.18
2022-12-29T05:15:25.968Z,73.39
2022-12-29T05:17:54.102Z,73.08
2022-12-29T05:20:22.627Z,72.71
2022-12-29T05:22:50.660Z,73.42
2022-12-29T05:25:18.871Z,72.89
2022-12-29T05:27:46.907Z,73.78
2022-12-29T05:30:16.612Z,73.48
2022-12-29T05:32:45.258Z,73.65
2022-12-29T05:35:13.838Z,73.58
2022-12-29T05:37:42.748Z,73.33
2022-12-29T05:40:11.977Z,73.15
2022-12-29T05:42:40.052Z,73.05
2022-12-29T05:45:10.398Z,73.01
2022-12-29T05:47:39.709Z,72.85
2022-12-29T05:50:08.196Z,72.72
2022-12-29T05:52:36.087Z,72.54
2022-12-29T05:55:04.489Z,72.66
2022-12-29T05:57:32.529Z,73.13
2022-12-29T06:00:01.278Z,72.87
2022-12-29T06:02:29.474Z,73.76
2022-12-29T06:04:58.997Z,73.38
2022-12-29T06:07:27.055Z,72.94
2022-12-29T06:09:55.064Z,73.35
2022-12-29T06:12:23.135Z,72.86
2022-12-29T06:14:51.225Z,72.66
2022-12-29T06:17:19.210Z,73.05
2022-12-29T06:19:47.184Z,73.72
2022-12-29T06:22:16.702Z,72.43
2022-12-29T06:24:44.957Z,72.44
2022-12-29T06:27:12.994Z,73.05
2022-12-29T06:29:41.713Z,72.83
2022-12-29T06:32:09.835Z,73.00
2022-12-29T06:34:37.944Z,72.67
2022-12-29T06:37:06.115Z,72.23
2022-12-29T06:39:35.429Z,72.30
2022-12-29T06:42:03.809Z,72.30
2022-12-29T06:44:31.816Z,72.14
2022-12-29T06:46:59.977Z,72.05
2022-12-29T06:49:27.946Z,72.50
2022-12-29T06:51:59.304Z,72.78
2022-12-29T06:54:27.433Z,72.07
2022-12-29T06:57:00.227Z,72.31
2022-12-29T06:59:28.413Z,72.73
2022-12-29T07:01:56.619Z,72.25
2022-12-29T07:04:27.671Z,72.18
2022-12-29T07:06:56.205Z,72.33
2022-12-29T07:09:24.255Z,73.15
2022-12-29T07:11:52.373Z,73.35
2022-12-29T07:14:21.721Z,73.47
2022-12-29T07:16:49.690Z,72.61
2022-12-29T07:19:17.800Z,72.93
2022-12-29T07:21:45.748Z,73.26
2022-12-29T07:24:13.796Z,73.55
2022-12-29T07:26:42.694Z,73.08
2022-12-29T07:29:10.688Z,74.00
2022-12-29T07:31:40.174Z,73.72
2022-12-29T07:34:09.863Z,73.82
2022-12-29T07:36:37.952Z,73.33
2022-12-29T07:39:06.261Z,73.74
2022-12-29T07:41:34.268Z,73.61
2022-12-29T07:44:02.275Z,73.97
2022-12-29T07:46:53.759Z,74.06
2022-12-29T07:49:19.655Z,74.71
2022-12-29T07:51:47.675Z,74.31
2022-12-29T07:54:19.040Z,74.48
2022-12-29T07:56:47.447Z,73.71
2022-12-29T07:59:15.480Z,73.80
2022-12-29T08:01:43.645Z,73.62
2022-12-29T08:04:11.862Z,74.17
2022-12-29T08:06:41.983Z,74.04
2022-12-29T08:09:15.044Z,74.10
2022-12-29T08:11:45.068Z,73.64
2022-12-29T08:14:13.308Z,73.98
2022-12-29T08:16:41.305Z,73.83
2022-12-29T08:19:09.367Z,73.14
2022-12-29T08:21:37.304Z,73.84
2022-12-29T08:24:07.905Z,73.73
2022-12-29T08:26:37.777Z,73.64
2022-12-29T08:29:07.966Z,73.99
2022-12-29T08:31:38.798Z,73.83
2022-12-29T08:34:06.860Z,74.10
2022-12-29T08:36:34.908Z,74.27
2022-12-29T08:39:04.227Z,74.75
2022-12-29T08:41:36.705Z,74.40
2022-12-29T08:44:04.779Z,73.68
2022-12-29T08:46:32.886Z,73.49
2022-12-29T08:49:03.933Z,73.39
2022-12-29T08:51:32.195Z,73.98
2022-12-29T08:54:00.903Z,72.84
2022-12-29T08:56:32.357Z,72.99
2022-12-29T08:59:09.075Z,72.22
2022-12-29T09:01:41.326Z,72.73
2022-12-29T09:04:15.663Z,73.25
2022-12-29T09:06:45.326Z,72.82
2022-12-29T09:09:18.027Z,72.65
2022-12-29T09:11:48.839Z,72.42
2022-12-29T09:14:20.184Z,72.85
2022-12-29T09:17:05.793Z,72.40
2022-12-29T09:19:33.825Z,72.25
2022-12-29T09:22:02.122Z,70.45
2022-12-29T09:24:32.991Z,69.91
2022-12-29T09:27:01.017Z,70.11
2022-12-29T09:29:30.353Z,70.23
2022-12-29T09:31:58.319Z,70.28
2022-12-29T09:34:29.768Z,70.16
2022-12-29T09:36:58.368Z,69.90
2022-12-29T09:39:26.697Z,69.03
2022-12-29T09:42:08.664Z,69.36
2022-12-29T09:44:58.188Z,69.44
2022-12-29T09:47:28.851Z,69.85
2022-12-29T09:50:04.081Z,69.76
2022-12-29T09:52:46.444Z,69.32
2022-12-29T09:55:23.203Z,69.23
2022-12-29T09:57:58.640Z,69.25
2022-12-29T10:00:40.721Z,68.50
2022-12-29T10:03:18.721Z,68.74
2022-12-29T10:06:06.638Z,69.27
2022-12-29T10:08:44.649Z,69.19
2022-12-29T10:11:34.782Z,69.62
2022-12-29T10:14:30.884Z,69.16
2022-12-29T10:17:13.276Z,69.70
2022-12-29T10:20:27.352Z,69.71
2022-12-29T10:23:30.227Z,69.33
2022-12-29T10:26:00.831Z,68.74
2022-12-29T10:28:42.054Z,68.64
2022-12-29T10:31:24.043Z,68.50
2022-12-29T10:33:59.658Z,68.48
2022-12-29T10:36:39.205Z,68.38
2022-12-29T10:39:20.793Z,67.96
2022-12-29T10:41:56.347Z,67.76
2022-12-29T10:44:30.300Z,67.40
2022-12-29T10:47:02.479Z,67.04
2022-12-29T10:49:39.227Z,66.88
2022-12-29T10:52:08.865Z,66.66
2022-12-29T10:54:48.452Z,66.69
2022-12-29T10:57:28.348Z,66.63
2022-12-29T10:59:56.739Z,66.49
2022-12-29T11:02:52.873Z,66.71
2022-12-29T11:05:34.519Z,66.60
2022-12-29T11:08:10.299Z,67.05
2022-12-29T11:10:42.020Z,66.96
2022-12-29T11:13:17.152Z,66.90
2022-12-29T11:15:47.659Z,66.83
2022-12-29T11:18:25.475Z,67.05
2022-12-29T11:21:00.274Z,66.69
2022-12-29T11:23:33.563Z,66.75
2022-12-29T11:26:21.413Z,67.32
2022-12-29T11:29:07.958Z,67.18
2022-12-29T11:31:43.963Z,67.47
2022-12-29T11:34:20.701Z,68.14
2022-12-29T11:36:54.167Z,68.86
2022-12-29T11:39:35.838Z,70.00
2022-12-29T11:42:05.750Z,70.07
2022-12-29T11:44:45.245Z,69.65
2022-12-29T11:47:28.777Z,71.65
2022-12-29T11:50:02.652Z,73.13
2022-12-29T11:52:37.275Z,74.17
2022-12-29T11:55:20.527Z,75.96
2022-12-29T11:57:49.303Z,77.45
2022-12-29T12:00:21.253Z,77.37
2022-12-29T12:03:00.925Z,77.43
2022-12-29T12:05:39.856Z,77.43
2022-12-29T12:08:24.793Z,76.90
2022-12-29T12:11:00.929Z,77.67
2022-12-29T12:13:36.929Z,77.34
2022-12-29T12:16:11.739Z,77.76
2022-12-29T12:18:49.921Z,79.01
2022-12-29T12:21:34.760Z,79.32
2022-12-29T12:24:22.497Z,79.80
2022-12-29T12:27:02.933Z,80.55
2022-12-29T12:29:45.162Z,81.05
2022-12-29T12:32:19.681Z,80.75
2022-12-29T12:34:49.295Z,80.83
2022-12-29T12:37:40.648Z,79.99
2022-12-29T12:40:36.862Z,79.40
2022-12-29T12:43:36.516Z,78.89
2022-12-29T12:46:40.187Z,78.59
2022-12-29T12:49:43.875Z,77.91
2022-12-29T12:52:26.510Z,77.91
2022-12-29T12:55:25.903Z,77.50
2022-12-29T12:58:09.921Z,76.75
2022-12-29T13:00:52.027Z,76.92
2022-12-29T13:03:34.478Z,76.56
2022-12-29T13:06:24.585Z,76.65
2022-12-29T13:09:14.992Z,75.96
2022-12-29T13:12:10.858Z,75.68
2022-12-29T13:14:59.587Z,75.22
2022-12-29T13:17:43.756Z,75.60
2022-12-29T13:20:28.844Z,76.20
2022-12-29T13:23:08.083Z,76.43
2022-12-29T13:25:47.906Z,76.55
2022-12-29T13:28:26.390Z,76.42
2022-12-29T13:31:10.405Z,77.33
2022-12-29T13:33:54.035Z,77.12
2022-12-29T13:36:28.033Z,77.19
2022-12-29T13:39:12.854Z,76.91
2022-12-29T13:41:51.139Z,76.99
2022-12-29T13:44:36.081Z,76.93
2022-12-29T13:47:22.733Z,76.03
2022-12-29T13:49:53.366Z,76.13
2022-12-29T13:52:34.825Z,76.07
2022-12-29T13:55:19.711Z,75.66
2022-12-29T13:57:56.178Z,75.78
2022-12-29T14:00:31.271Z,75.71
2022-12-29T14:03:44.870Z,75.54
2022-12-29T14:06:41.280Z,75.95
2022-12-29T14:09:48.335Z,76.63
2022-12-29T14:12:35.188Z,76.68
2022-12-29T14:15:21.568Z,77.59
2022-12-29T14:18:14.406Z,77.37
2022-12-29T14:20:54.124Z,78.42
2022-12-29T14:23:37.021Z,77.99
2022-12-29T14:26:35.564Z,78.23
2022-12-29T14:29:45.254Z,78.39
2022-12-29T14:32:39.028Z,79.08
2022-12-29T14:35:43.782Z,79.23
2022-12-29T14:38:31.970Z,79.18
2022-12-29T14:41:34.114Z,79.00
2022-12-29T14:44:21.674Z,79.41
2022-12-29T14:46:59.502Z,78.83
2022-12-29T14:49:32.249Z,78.97
2022-12-29T14:52:19.629Z,78.35
2022-12-29T14:54:53.153Z,78.18
2022-12-29T14:57:43.005Z,78.25
2022-12-29T15:00:21.805Z,77.69
2022-12-29T15:03:06.639Z,78.09
2022-12-29T15:05:43.452Z,78.49
2022-12-29T15:08:15.212Z,80.47
2022-12-29T15:10:49.747Z,82.36
2022-12-29T15:13:24.139Z,87.06
2022-12-29T15:15:53.791Z,89.82
2022-12-29T15:18:27.838Z,90.34
2022-12-29T15:21:00.672Z,91.50
2022-12-29T15:23:34.730Z,88.81
2022-12-29T15:26:07.743Z,89.09
2022-12-29T15:28:42.650Z,88.81
2022-12-29T15:31:16.144Z,88.93
2022-12-29T15:33:48.436Z,88.49
2022-12-29T15:36:22.424Z,88.66
2022-12-29T15:38:52.916Z,87.84
2022-12-29T15:41:59.110Z,87.63
2022-12-29T15:44:34.411Z,87.82
2022-12-29T15:47:06.343Z,86.83
2022-12-29T15:49:35.200Z,86.73
2022-12-29T15:52:09.783Z,86.37
2022-12-29T15:54:40.117Z,86.12
2022-12-29T15:57:26.280Z,86.24
2022-12-29T15:59:55.147Z,86.48
2022-12-29T16:02:25.362Z,86.29
2022-12-29T16:05:16.663Z,85.94
2022-12-29T16:07:56.060Z,86.53
2022-12-29T16:10:38.656Z,86.97
2022-12-29T16:13:18.958Z,87.96
2022-12-29T16:15:49.362Z,87.86
2022-12-29T16:18:26.825Z,86.99
2022-12-29T16:20:56.476Z,86.97
2022-12-29T16:23:28.951Z,86.94
2022-12-29T16:25:59.564Z,87.56
2022-12-29T16:28:43.821Z,88.29
2022-12-29T16:31:23.178Z,87.36
2022-12-29T16:33:54.436Z,87.08
2022-12-29T16:36:37.023Z,86.05
2022-12-29T16:39:27.307Z,85.83
2022-12-29T16:41:57.535Z,83.94
2022-12-29T16:44:28.510Z,83.23
2022-12-29T16:47:18.369Z,82.23
2022-12-29T16:49:53.293Z,81.47
2022-12-29T16:52:26.619Z,82.23
2022-12-29T16:55:01.125Z,80.73
2022-12-29T16:57:35.247Z,79.90
2022-12-29T17:00:10.075Z,77.67
2022-12-29T17:02:45.583Z,77.17
2022-12-29T17:05:15.559Z,76.39
2022-12-29T17:07:43.380Z,75.86
2022-12-29T17:10:13.347Z,76.16
2022-12-29T17:12:45.450Z,74.64
2022-12-29T17:15:24.786Z,75.69
2022-12-29T17:17:57.467Z,73.35
2022-12-29T17:20:28.015Z,72.97
2022-12-29T17:22:56.291Z,71.88
2022-12-29T17:25:31.374Z,72.87
2022-12-29T17:28:05.258Z,72.01
2022-12-29T17:30:36.106Z,71.06
2022-12-29T17:33:08.884Z,71.07
2022-12-29T17:35:37.086Z,71.29
2022-12-29T17:38:05.783Z,71.41
2022-12-29T17:40:35.275Z,70.95
2022-12-29T17:43:04.720Z,70.72
2022-12-29T17:45:34.347Z,70.65
2022-12-29T17:48:02.316Z,70.85
2022-12-29T17:50:32.846Z,70.74
2022-12-29T17:53:06.761Z,71.30
2022-12-29T17:55:38.266Z,71.59
2022-12-29T17:58:19.398Z,71.17
2022-12-29T18:00:49.154Z,70.79
2022-12-29T18:03:17.923Z,72.21
2022-12-29T18:05:46.882Z,70.92
2022-12-29T18:08:14.932Z,71.42
2022-12-29T18:10:43.904Z,70.95
2022-12-29T18:13:23.189Z,70.16
2022-12-29T18:15:52.304Z,70.19
2022-12-29T18:18:24.250Z,70.37
2022-12-29T18:20:55.859Z,69.62
2022-12-29T18:23:26.899Z,70.06
2022-12-29T18:26:00.240Z,70.42
2022-12-29T18:28:30.350Z,70.68
2022-12-29T18:31:03.329Z,70.07
2022-12-29T18:33:33.768Z,70.80
2022-12-29T18:36:05.189Z,69.81
2022-12-29T18:38:33.536Z,70.42
2022-12-29T18:41:01.558Z,70.59
2022-12-29T18:43:31.074Z,70.30
2022-12-29T18:45:59.207Z,70.16
2022-12-29T18:48:28.063Z,69.95
2022-12-29T18:50:56.207Z,69.96
2022-12-29T18:53:26.269Z,69.79
2022-12-29T18:55:57.284Z,70.64
2022-12-29T18:58:30.577Z,70.15
2022-12-29T19:01:04.102Z,69.77
2022-12-29T19:03:33.041Z,70.78
2022-12-29T19:06:04.109Z,71.03
2022-12-29T19:08:32.216Z,70.41
2022-12-29T19:11:01.042Z,70.23
2022-12-29T19:13:29.855Z,70.51
2022-12-29T19:15:59.882Z,69.91
2022-12-29T19:18:43.681Z,69.79
2022-12-29T19:21:12.557Z,69.81
2022-12-29T19:23:41.275Z,71.21
2022-12-29T19:26:25.992Z,70.94
2022-12-29T19:28:54.028Z,70.77
2022-12-29T19:31:22.065Z,71.37
2022-12-29T19:33:51.441Z,71.25
2022-12-29T19:36:19.640Z,71.27
2022-12-29T19:38:47.964Z,71.31
2022-12-29T19:41:17.006Z,70.85
2022-12-29T19:43:45.458Z,71.27
2022-12-29T19:46:18.925Z,71.26
2022-12-29T19:48:47.132Z,71.67
2022-12-29T19:51:18.340Z,71.10
2022-12-29T19:53:48.020Z,71.48
2022-12-29T19:56:16.339Z,72.04
2022-12-29T19:58:47.486Z,72.24
2022-12-29T20:01:18.949Z,72.28
2022-12-29T20:03:47.833Z,72.70
2022-12-29T20:06:17.910Z,72.72
2022-12-29T20:08:46.138Z,72.50
2022-12-29T20:11:17.069Z,72.77
2022-12-29T20:13:46.060Z,73.00
2022-12-29T20:16:16.978Z,72.56
2022-12-29T20:18:45.580Z,72.74
2022-12-29T20:21:17.439Z,72.63
2022-12-29T20:23:46.736Z,72.63
2022-12-29T20:26:18.910Z,72.43
2022-12-29T20:28:47.981Z,72.62
2022-12-29T20:31:20.851Z,73.26
2022-12-29T20:33:49.851Z,73.62
2022-12-29T20:36:26.229Z,73.49
2022-12-29T20:38:56.758Z,74.15
2022-12-29T20:41:25.599Z,74.59
2022-12-29T20:43:54.107Z,74.93
2022-12-29T20:46:26.501Z,74.63
2022-12-29T20:48:59.195Z,73.96
2022-12-29T20:51:55.280Z,74.19
2022-12-29T20:54:19.104Z,73.46
2022-12-29T20:56:47.351Z,73.58
2022-12-29T20:59:31.474Z,73.62
2022-12-29T21:02:00.079Z,73.39
2022-12-29T21:04:38.489Z,73.61
2022-12-29T21:07:20.208Z,72.93
2022-12-29T21:09:48.557Z,73.21
2022-12-29T21:12:16.569Z,72.30
2022-12-29T21:14:46.013Z,72.59
2022-12-29T21:17:14.237Z,72.62
2022-12-29T21:19:42.441Z,72.43
2022-12-29T21:22:10.413Z,72.32
2022-12-29T21:24:39.786Z,72.81
2022-12-29T21:27:07.856Z,73.02
2022-12-29T21:29:35.966Z,72.53
2022-12-29T21:32:06.692Z,73.19
2022-12-29T21:34:35.530Z,72.35
2022-12-29T21:37:03.925Z,73.32
2022-12-29T21:39:31.913Z,73.23
2022-12-29T21:42:02.528Z,73.21
2022-12-29T21:44:48.232Z,73.24
2022-12-29T21:47:16.227Z,73.39
2022-12-29T21:49:44.301Z,72.51
2022-12-29T21:52:12.271Z,72.51
2022-12-29T21:54:58.045Z,73.29
2022-12-29T21:57:45.108Z,73.20
2022-12-29T22:00:32.028Z,72.95
2022-12-29T22:03:22.964Z,72.94
2022-12-29T22:06:10.360Z,73.03
2022-12-29T22:08:56.917Z,72.11
2022-12-29T22:11:42.221Z,72.19
2022-12-29T22:14:12.063Z,72.12
2022-12-29T22:16:40.126Z,71.66
2022-12-29T22:19:10.976Z,71.77
2022-12-29T22:21:39.156Z,71.70
2022-12-29T22:24:08.636Z,71.23
2022-12-29T22:26:36.751Z,70.83
2022-12-29T22:29:05.003Z,70.95
2022-12-29T22:31:34.451Z,70.77
2022-12-29T22:34:05.574Z,70.17
2022-12-29T22:36:34.068Z,69.79
2022-12-29T22:39:02.198Z,69.06
2022-12-29T22:41:30.338Z,69.59
2022-12-29T22:43:58.344Z,69.32
2022-12-29T22:46:26.363Z,68.79
2022-12-29T22:48:57.994Z,69.12
2022-12-29T22:51:26.320Z,69.85
2022-12-29T22:53:54.376Z,69.70
2022-12-29T22:56:22.373Z,69.50
2022-12-29T22:58:50.558Z,69.11
2022-12-29T23:01:22.716Z,68.65
2022-12-29T23:03:51.144Z,68.92
2022-12-29T23:06:20.836Z,68.93
2022-12-29T23:08:48.935Z,68.43
2022-12-29T23:11:17.532Z,68.33
2022-12-29T23:13:46.127Z,68.76
2022-12-29T23:16:15.126Z,69.06
2022-12-29T23:18:43.955Z,68.96
2022-12-29T23:21:12.787Z,68.63
2022-12-29T23:23:57.568Z,68.50
2022-12-29T23:26:28.389Z,68.61
2022-12-29T23:29:00.248Z,68.20
2022-12-29T23:31:30.266Z,68.53
2022-12-29T23:33:58.329Z,68.80
2022-12-29T23:36:26.560Z,68.92
2022-12-29T23:38:56.332Z,68.66
2022-12-29T23:41:24.453Z,69.08
2022-12-29T23:43:52.541Z,69.03
2022-12-29T23:46:24.569Z,68.63
2022-12-29T23:48:53.433Z,69.30
2022-12-29T23:51:21.997Z,69.11
2022-12-29T23:53:50.319Z,69.47
2022-12-29T23:56:22.926Z,69.29
2022-12-29T23:58:51.958Z,69.84
